createdAt,value
2017-12-24T00:00:44.836Z,92.13
2017-12-24T00:06:14.093Z,91.44
2017-12-24T00:08:48.766Z,91.72
2017-12-24T00:11:18.762Z,91.17
2017-12-24T00:14:01.411Z,91.34
2017-12-24T00:16:30.456Z,91.39
2017-12-24T00:18:59.502Z,91.75
2017-12-24T00:21:28.540Z,91.99
2017-12-24T00:23:57.666Z,91.90
2017-12-24T00:26:26.711Z,92.16
2017-12-24T00:29:01.614Z,92.46
2017-12-24T00:31:38.540Z,92.76
2017-12-24T00:34:07.585Z,92.78
2017-12-24T00:36:38.515Z,92.69
2017-12-24T00:41:42.754Z,92.50
2017-12-24T00:44:18.994Z,92.47
2017-12-24T00:46:48.944Z,92.00
2017-12-24T00:49:22.622Z,91.71
2017-12-24T00:51:51.699Z,92.13
2017-12-24T00:54:20.783Z,91.74
2017-12-24T00:56:49.814Z,92.59
2017-12-24T00:59:27.206Z,92.74
2017-12-24T01:01:56.246Z,93.15
2017-12-24T01:04:28.993Z,93.26
2017-12-24T01:07:01.815Z,93.65
2017-12-24T01:09:38.863Z,93.40
2017-12-24T01:12:34.681Z,93.89
2017-12-24T01:15:07.883Z,93.69
2017-12-24T01:17:37.815Z,94.05
2017-12-24T01:20:16.866Z,94.23
2017-12-24T01:22:45.905Z,94.21
2017-12-24T01:25:19.391Z,94.01
2017-12-24T01:27:48.422Z,94.21
2017-12-24T01:30:39.110Z,94.06
2017-12-24T01:33:11.290Z,94.35
2017-12-24T01:35:40.329Z,94.41
2017-12-24T01:38:09.371Z,94.47
2017-12-24T01:40:38.410Z,94.60
2017-12-24T01:43:26.654Z,94.72
2017-12-24T01:45:55.717Z,94.73
2017-12-24T01:48:25.715Z,94.67
2017-12-24T01:50:54.754Z,94.48
2017-12-24T01:56:13.422Z,94.13
2017-12-24T01:58:42.753Z,94.00
2017-12-24T02:01:11.790Z,94.12
2017-12-24T02:03:40.833Z,94.13
2017-12-24T02:06:10.820Z,94.32
2017-12-24T02:09:01.405Z,93.97
2017-12-24T02:11:37.759Z,94.43
2017-12-24T02:14:06.824Z,94.10
2017-12-24T02:16:36.773Z,93.98
2017-12-24T02:19:05.819Z,93.87
2017-12-24T02:21:47.821Z,93.88
2017-12-24T02:24:16.903Z,93.97
2017-12-24T02:26:51.641Z,93.92
2017-12-24T02:29:33.579Z,93.71
2017-12-24T02:32:02.630Z,94.21
2017-12-24T02:34:56.515Z,94.52
2017-12-24T02:37:26.565Z,94.84
2017-12-24T02:39:55.630Z,94.58
2017-12-24T02:42:24.670Z,94.67
2017-12-24T02:44:57.989Z,95.09
2017-12-24T02:47:36.983Z,95.31
2017-12-24T02:50:06.184Z,95.34
2017-12-24T02:53:00.803Z,95.34
2017-12-24T02:55:30.886Z,95.46
2017-12-24T02:58:00.821Z,95.44
2017-12-24T03:00:45.556Z,95.31
2017-12-24T03:03:14.590Z,95.15
2017-12-24T03:05:57.473Z,95.15
2017-12-24T03:08:31.554Z,94.75
2017-12-24T03:11:00.609Z,94.02
2017-12-24T03:13:33.193Z,93.51
2017-12-24T03:16:02.242Z,93.63
2017-12-24T03:18:31.278Z,93.35
2017-12-24T03:21:01.222Z,93.33
2017-12-24T03:23:33.758Z,93.38
2017-12-24T03:26:02.830Z,93.72
2017-12-24T03:28:40.662Z,94.37
2017-12-24T03:31:19.318Z,94.03
2017-12-24T03:34:21.798Z,94.00
2017-12-24T03:37:22.178Z,93.85
2017-12-24T03:39:55.653Z,93.79
2017-12-24T03:42:24.715Z,93.61
2017-12-24T03:45:21.161Z,93.66
2017-12-24T03:48:13.504Z,93.79
2017-12-24T03:50:42.548Z,93.66
2017-12-24T03:53:22.548Z,93.42
2017-12-24T03:55:51.617Z,93.45
2017-12-24T03:58:22.582Z,93.51
2017-12-24T04:03:27.378Z,93.73
2017-12-24T04:05:59.819Z,93.47
2017-12-24T04:08:28.859Z,93.91
2017-12-24T04:10:57.915Z,94.23
2017-12-24T04:13:26.950Z,94.07
2017-12-24T04:15:57.989Z,94.36
2017-12-24T04:18:27.018Z,94.48
2017-12-24T04:20:56.087Z,94.04
2017-12-24T04:23:25.154Z,94.05
2017-12-24T04:26:03.986Z,93.90
2017-12-24T04:28:33.046Z,93.58
2017-12-24T04:31:21.807Z,93.75
2017-12-24T04:36:34.126Z,94.59
2017-12-24T04:39:03.155Z,94.42
2017-12-24T04:41:32.201Z,94.17
2017-12-24T04:46:36.420Z,93.59
2017-12-24T04:49:11.301Z,93.75
2017-12-24T04:51:40.344Z,93.74
2017-12-24T04:54:11.283Z,92.99
2017-12-24T04:56:40.323Z,93.63
2017-12-24T04:59:09.356Z,93.92
2017-12-24T05:01:38.395Z,93.64
2017-12-24T05:04:14.042Z,93.54
2017-12-24T05:07:04.992Z,93.81
2017-12-24T05:09:34.025Z,93.63
2017-12-24T05:12:16.813Z,93.43
2017-12-24T05:14:50.813Z,93.72
2017-12-24T05:20:14.054Z,93.51
2017-12-24T05:22:43.113Z,93.66
2017-12-24T05:25:15.350Z,93.70
2017-12-24T05:30:22.686Z,93.57
2017-12-24T05:32:51.738Z,93.76
2017-12-24T05:35:21.802Z,93.87
2017-12-24T05:37:50.841Z,93.87
2017-12-24T05:40:23.823Z,93.47
2017-12-24T05:42:53.777Z,94.02
2017-12-24T05:45:22.820Z,94.06
2017-12-24T05:47:51.850Z,93.78
2017-12-24T05:50:46.337Z,93.85
2017-12-24T05:53:46.086Z,93.66
2017-12-24T05:56:39.589Z,93.56
2017-12-24T05:59:08.616Z,93.84
2017-12-24T06:01:46.445Z,93.09
2017-12-24T06:04:19.205Z,93.08
2017-12-24T06:06:52.548Z,93.64
2017-12-24T06:09:25.880Z,93.91
2017-12-24T06:11:54.926Z,94.25
2017-12-24T06:14:46.362Z,94.36
2017-12-24T06:17:27.509Z,93.93
2017-12-24T06:19:56.541Z,94.20
2017-12-24T06:22:25.578Z,94.15
2017-12-24T06:24:54.622Z,94.25
2017-12-24T06:27:30.966Z,94.31
2017-12-24T06:30:00.046Z,94.32
2017-12-24T06:32:29.065Z,94.09
2017-12-24T06:34:58.098Z,93.89
2017-12-24T06:37:37.357Z,93.49
2017-12-24T06:42:46.769Z,93.77
2017-12-24T06:45:21.614Z,93.89
2017-12-24T06:47:50.657Z,93.53
2017-12-24T06:50:19.742Z,93.40
2017-12-24T06:52:48.775Z,93.66
2017-12-24T06:55:18.766Z,93.42
2017-12-24T06:57:47.810Z,93.47
2017-12-24T07:00:20.591Z,93.70
2017-12-24T07:02:49.617Z,93.59
2017-12-24T07:05:18.638Z,93.83
2017-12-24T07:07:47.819Z,93.92
2017-12-24T07:10:22.597Z,93.51
2017-12-24T07:12:51.611Z,93.57
2017-12-24T07:15:21.588Z,93.38
2017-12-24T07:17:50.635Z,93.33
2017-12-24T07:20:20.763Z,93.54
2017-12-24T07:22:49.808Z,93.49
2017-12-24T07:25:18.845Z,93.21
2017-12-24T07:27:47.892Z,92.76
2017-12-24T07:30:16.982Z,92.92
2017-12-24T07:32:46.018Z,92.79
2017-12-24T07:35:17.046Z,92.75
2017-12-24T07:40:21.421Z,92.67
2017-12-24T07:42:50.446Z,92.95
2017-12-24T07:45:19.483Z,93.00
2017-12-24T07:47:48.530Z,92.61
2017-12-24T07:50:17.565Z,92.77
2017-12-24T07:55:23.346Z,91.77
2017-12-24T07:57:53.481Z,91.87
2017-12-24T08:00:22.514Z,92.29
2017-12-24T08:02:53.554Z,92.65
2017-12-24T08:05:22.598Z,91.48
2017-12-24T08:07:51.642Z,91.78
2017-12-24T08:10:20.723Z,91.73
2017-12-24T08:12:54.007Z,91.34
2017-12-24T08:15:23.053Z,91.67
2017-12-24T08:17:55.721Z,91.95
2017-12-24T08:20:24.790Z,91.43
2017-12-24T08:25:29.078Z,91.34
2017-12-24T08:27:58.128Z,90.34
2017-12-24T08:30:27.208Z,90.96
2017-12-24T08:32:56.305Z,90.86
2017-12-24T08:35:25.355Z,89.56
2017-12-24T08:37:59.271Z,90.04
2017-12-24T08:40:28.358Z,90.16
2017-12-24T08:45:32.629Z,89.39
2017-12-24T08:58:24.948Z,83.44
2017-12-24T09:03:29.391Z,76.80
2017-12-24T09:05:58.587Z,74.07
2017-12-24T09:08:27.647Z,74.48
2017-12-24T09:10:56.661Z,69.30
2017-12-24T09:13:25.689Z,70.36
2017-12-24T09:15:54.730Z,68.48
2017-12-24T09:18:23.799Z,69.63
2017-12-24T09:20:52.842Z,70.30
2017-12-24T09:23:21.878Z,64.89
2017-12-24T09:25:50.914Z,62.97
2017-12-24T09:28:19.991Z,59.35
2017-12-24T09:30:50.040Z,62.35
2017-12-24T09:33:19.069Z,65.19
2017-12-24T09:35:48.143Z,65.61
2017-12-24T09:38:17.146Z,64.26
2017-12-24T09:40:47.141Z,64.79
2017-12-24T09:43:16.174Z,62.75
2017-12-24T09:45:45.457Z,62.96
2017-12-24T09:48:14.489Z,62.25
2017-12-24T09:50:43.666Z,61.27
2017-12-24T09:53:12.703Z,63.57
2017-12-24T09:55:43.701Z,60.76
2017-12-24T09:58:12.733Z,68.49
2017-12-24T10:00:41.765Z,71.20
2017-12-24T10:03:10.806Z,75.17
2017-12-24T10:05:39.834Z,76.27
2017-12-24T10:10:45.065Z,71.54
2017-12-24T10:13:14.092Z,66.53
2017-12-24T10:15:46.770Z,65.60
2017-12-24T10:18:15.823Z,63.37
2017-12-24T10:20:51.655Z,62.27
2017-12-24T10:23:20.693Z,56.65
2017-12-24T10:25:49.731Z,57.23
2017-12-24T10:28:18.772Z,56.04
2017-12-24T10:30:47.881Z,55.38
2017-12-24T10:33:16.929Z,55.83
2017-12-24T10:38:21.254Z,54.31
2017-12-24T10:40:50.334Z,56.24
2017-12-24T10:43:19.376Z,53.76
2017-12-24T10:45:49.332Z,57.82
2017-12-24T10:48:18.509Z,56.77
2017-12-24T10:50:47.592Z,57.87
2017-12-24T10:53:16.618Z,58.27
2017-12-24T10:55:45.657Z,56.77
2017-12-24T10:58:14.754Z,59.81
2017-12-24T11:00:43.798Z,56.72
2017-12-24T11:03:18.746Z,55.05
2017-12-24T11:05:47.782Z,55.96
2017-12-24T11:08:16.819Z,54.49
2017-12-24T11:10:45.964Z,53.73
2017-12-24T11:13:15.023Z,49.12
2017-12-24T11:15:44.121Z,50.18
2017-12-24T11:18:13.176Z,47.24
2017-12-24T11:20:42.230Z,55.82
2017-12-24T11:23:11.266Z,48.61
2017-12-24T11:25:40.329Z,49.46
2017-12-24T11:28:09.379Z,47.38
2017-12-24T11:30:38.461Z,50.39
2017-12-24T11:33:07.470Z,47.34
2017-12-24T11:35:36.506Z,50.83
2017-12-24T11:38:05.739Z,53.84
2017-12-24T11:40:34.774Z,51.39
2017-12-24T11:43:03.870Z,48.80
2017-12-24T11:45:34.221Z,46.16
2017-12-24T11:48:05.429Z,46.68
2017-12-24T11:53:09.751Z,49.00
2017-12-24T11:55:38.770Z,49.79
2017-12-24T11:58:08.722Z,48.80
2017-12-24T12:03:13.166Z,51.49
2017-12-24T12:08:17.498Z,49.23
2017-12-24T12:10:46.566Z,50.30
2017-12-24T12:13:15.666Z,50.88
2017-12-24T12:15:44.706Z,56.19
2017-12-24T12:18:13.742Z,54.35
2017-12-24T12:20:42.826Z,53.54
2017-12-24T12:23:11.984Z,54.69
2017-12-24T12:25:41.005Z,56.52
2017-12-24T12:28:10.090Z,54.29
2017-12-24T12:30:39.217Z,55.77
2017-12-24T12:33:10.171Z,55.50
2017-12-24T12:35:39.218Z,55.51
2017-12-24T12:38:08.253Z,57.31
2017-12-24T12:40:37.378Z,57.89
2017-12-24T12:43:06.571Z,58.95
2017-12-24T12:45:35.629Z,60.60
2017-12-24T12:48:04.791Z,57.36
2017-12-24T12:50:33.848Z,55.76
2017-12-24T12:53:03.916Z,55.95
2017-12-24T12:55:32.945Z,56.01
2017-12-24T12:58:02.138Z,54.58
2017-12-24T13:00:31.187Z,53.74
2017-12-24T13:03:01.256Z,53.10
2017-12-24T13:05:30.302Z,53.75
2017-12-24T13:07:59.378Z,55.04
2017-12-24T13:10:28.438Z,53.71
2017-12-24T13:12:57.458Z,52.95
2017-12-24T13:18:06.719Z,51.36
2017-12-24T13:20:35.773Z,50.61
2017-12-24T13:23:04.901Z,50.39
2017-12-24T13:25:33.938Z,49.44
2017-12-24T13:28:02.988Z,49.51
2017-12-24T13:30:32.034Z,50.44
2017-12-24T13:33:01.090Z,50.17
2017-12-24T13:38:05.366Z,47.77
2017-12-24T13:43:09.699Z,46.84
2017-12-24T13:45:38.725Z,47.32
2017-12-24T13:48:07.800Z,51.49
2017-12-24T13:53:13.118Z,52.41
2017-12-24T13:55:42.155Z,54.24
2017-12-24T13:58:11.184Z,55.70
2017-12-24T14:00:40.254Z,58.69
2017-12-24T14:03:09.302Z,59.49
2017-12-24T14:05:38.332Z,61.45
2017-12-24T14:08:07.358Z,63.10
2017-12-24T14:10:36.415Z,64.58
2017-12-24T14:13:05.455Z,66.38
2017-12-24T14:15:47.494Z,67.18
2017-12-24T14:18:16.523Z,67.06
2017-12-24T14:20:46.525Z,70.65
2017-12-24T14:23:15.623Z,69.69
2017-12-24T14:25:44.634Z,70.96
2017-12-24T14:28:13.699Z,72.82
2017-12-24T14:30:42.726Z,72.00
2017-12-24T14:35:47.163Z,74.52
2017-12-24T14:38:17.210Z,74.55
2017-12-24T14:43:21.434Z,76.67
2017-12-24T14:45:50.461Z,77.04
2017-12-24T14:48:20.458Z,78.94
2017-12-24T14:50:50.395Z,80.91
2017-12-24T14:55:54.645Z,81.34
2017-12-24T14:58:23.685Z,81.74
2017-12-24T15:00:52.714Z,80.79
2017-12-24T15:03:22.704Z,79.93
2017-12-24T15:05:51.721Z,81.32
2017-12-24T15:08:21.725Z,82.35
2017-12-24T15:10:50.767Z,82.78
2017-12-24T15:13:32.746Z,82.06
2017-12-24T15:16:01.769Z,82.48
2017-12-24T15:18:36.781Z,81.90
2017-12-24T15:21:05.812Z,82.44
2017-12-24T15:23:35.971Z,84.32
2017-12-24T15:26:05.073Z,85.82
2017-12-24T15:28:34.107Z,86.51
2017-12-24T15:31:03.133Z,86.42
2017-12-24T15:33:32.177Z,86.97
2017-12-24T15:36:02.190Z,87.47
2017-12-24T15:38:31.252Z,87.99
2017-12-24T15:41:00.287Z,86.78
2017-12-24T15:43:29.343Z,87.34
2017-12-24T15:45:58.386Z,88.30
2017-12-24T15:48:27.426Z,89.10
2017-12-24T15:51:11.463Z,88.24
2017-12-24T15:56:15.685Z,87.63
2017-12-24T15:58:50.475Z,87.86
2017-12-24T16:04:12.706Z,86.47
2017-12-24T16:06:41.734Z,86.75
2017-12-24T16:09:11.721Z,87.48
2017-12-24T16:11:40.797Z,91.93
2017-12-24T16:16:46.034Z,91.01
2017-12-24T16:19:15.082Z,91.29
2017-12-24T16:21:47.593Z,92.96
2017-12-24T16:24:16.652Z,94.12
2017-12-24T16:26:45.704Z,92.60
2017-12-24T16:29:14.750Z,88.94
2017-12-24T16:31:52.710Z,88.32
2017-12-24T16:34:21.750Z,87.61
2017-12-24T16:36:51.798Z,90.96
2017-12-24T16:39:21.194Z,91.13
2017-12-24T16:44:25.488Z,87.85
2017-12-24T16:47:00.418Z,89.04
2017-12-24T16:49:29.455Z,90.55
2017-12-24T16:52:12.947Z,91.43
2017-12-24T16:54:59.074Z,93.84
2017-12-24T16:57:28.130Z,90.92
2017-12-24T17:00:11.886Z,91.16
2017-12-24T17:02:41.117Z,92.68
2017-12-24T17:05:11.158Z,90.83
2017-12-24T17:08:01.741Z,95.84
2017-12-24T17:10:30.780Z,97.49
2017-12-24T17:13:12.211Z,97.74
2017-12-24T17:15:49.304Z,97.53
2017-12-24T17:18:18.351Z,97.64
2017-12-24T17:20:51.834Z,96.16
2017-12-24T17:23:20.879Z,95.64
2017-12-24T17:25:49.965Z,94.57
2017-12-24T17:28:19.014Z,91.24
2017-12-24T17:30:48.066Z,93.23
2017-12-24T17:33:17.151Z,91.76
2017-12-24T17:35:46.206Z,93.69
2017-12-24T17:40:52.414Z,95.16
2017-12-24T17:43:30.079Z,91.91
2017-12-24T17:46:00.144Z,93.91
2017-12-24T17:48:30.070Z,93.90
2017-12-24T17:50:59.117Z,95.58
2017-12-24T17:56:03.410Z,95.34
2017-12-24T17:58:33.365Z,95.25
2017-12-24T18:01:02.402Z,95.41
2017-12-24T18:03:40.983Z,95.18
2017-12-24T18:06:27.363Z,96.62
2017-12-24T18:11:34.563Z,96.33
2017-12-24T18:16:40.323Z,96.57
2017-12-24T18:22:05.611Z,95.65
2017-12-24T18:24:34.647Z,95.34
2017-12-24T18:27:03.686Z,94.68
2017-12-24T18:29:33.693Z,93.73
2017-12-24T18:32:03.725Z,93.74
2017-12-24T18:34:34.706Z,93.44
2017-12-24T18:37:04.674Z,93.38
2017-12-24T18:39:34.646Z,92.89
2017-12-24T18:42:12.107Z,93.61
2017-12-24T18:44:41.255Z,94.09
2017-12-24T18:47:10.285Z,92.60
2017-12-24T18:49:39.323Z,93.70
2017-12-24T18:52:11.369Z,94.32
2017-12-24T18:54:40.458Z,94.05
2017-12-24T18:57:10.486Z,93.10
2017-12-24T18:59:39.527Z,93.19
2017-12-24T19:02:11.650Z,94.58
2017-12-24T19:04:41.761Z,94.06
2017-12-24T19:07:10.802Z,93.72
2017-12-24T19:09:39.852Z,93.90
2017-12-24T19:12:08.886Z,94.06
2017-12-24T19:14:37.986Z,94.42
2017-12-24T19:17:07.018Z,94.31
2017-12-24T19:19:39.757Z,94.06
2017-12-24T19:22:08.811Z,92.69
2017-12-24T19:24:38.833Z,93.85
2017-12-24T19:27:07.886Z,94.34
2017-12-24T19:29:37.863Z,94.95
2017-12-24T19:32:06.901Z,94.42
2017-12-24T19:34:37.981Z,93.79
2017-12-24T19:37:06.992Z,93.90
2017-12-24T19:39:36.033Z,94.42
2017-12-24T19:42:05.065Z,94.12
2017-12-24T19:44:34.127Z,93.63
2017-12-24T19:47:03.208Z,93.46
2017-12-24T19:49:32.239Z,94.42
2017-12-24T19:52:01.282Z,94.27
2017-12-24T19:54:39.317Z,92.87
2017-12-24T19:57:08.353Z,93.16
2017-12-24T20:02:21.017Z,94.43
2017-12-24T20:04:51.114Z,94.31
2017-12-24T20:07:47.375Z,94.78
2017-12-24T20:10:17.407Z,94.61
2017-12-24T20:12:50.086Z,93.31
2017-12-24T20:15:20.142Z,93.98
2017-12-24T20:20:26.328Z,94.40
2017-12-24T20:22:56.282Z,94.92
2017-12-24T20:25:25.353Z,95.02
2017-12-24T20:27:56.303Z,95.42
2017-12-24T20:30:25.356Z,95.44
2017-12-24T20:32:56.286Z,94.61
2017-12-24T20:35:38.358Z,95.08
2017-12-24T20:38:07.399Z,94.31
2017-12-24T20:43:11.642Z,94.57
2017-12-24T20:45:40.698Z,93.61
2017-12-24T20:48:09.802Z,93.73
2017-12-24T20:50:46.601Z,94.37
2017-12-24T20:53:15.884Z,94.10
2017-12-24T20:55:48.475Z,93.71
2017-12-24T20:58:21.353Z,93.94
2017-12-24T21:00:51.286Z,93.70
2017-12-24T21:03:22.391Z,93.95
2017-12-24T21:05:51.438Z,93.80
2017-12-24T21:10:55.687Z,92.83
2017-12-24T21:16:10.355Z,93.32
2017-12-24T21:18:44.135Z,92.78
2017-12-24T21:21:13.187Z,93.41
2017-12-24T21:23:46.047Z,93.60
2017-12-24T21:26:15.114Z,93.17
2017-12-24T21:28:44.343Z,94.08
2017-12-24T21:33:48.618Z,93.48
2017-12-24T21:41:49.630Z,93.99
2017-12-24T21:44:18.666Z,93.70
2017-12-24T21:46:47.742Z,94.07
2017-12-24T21:49:17.854Z,93.27
2017-12-24T21:51:46.883Z,94.38
2017-12-24T21:54:16.834Z,94.51
2017-12-24T21:56:45.909Z,93.41
2017-12-24T21:59:18.376Z,93.56
2017-12-24T22:02:00.950Z,92.87
2017-12-24T22:04:30.962Z,92.38
2017-12-24T22:07:00.005Z,92.37
2017-12-24T22:09:29.042Z,93.57
2017-12-24T22:11:58.207Z,94.35
2017-12-24T22:14:27.254Z,94.88
2017-12-24T22:16:56.335Z,94.55
2017-12-24T22:19:25.349Z,94.74
2017-12-24T22:22:12.942Z,94.57
2017-12-24T22:24:41.989Z,93.86
2017-12-24T22:27:18.070Z,94.20
2017-12-24T22:29:48.006Z,94.18
2017-12-24T22:32:17.997Z,93.87
2017-12-24T22:34:51.494Z,93.41
2017-12-24T22:37:20.537Z,93.76
2017-12-24T22:39:49.590Z,93.97
2017-12-24T22:42:18.626Z,94.37
2017-12-24T22:44:47.698Z,93.79
2017-12-24T22:47:16.725Z,93.43
2017-12-24T22:49:45.810Z,93.79
2017-12-24T22:52:18.366Z,93.43
2017-12-24T22:57:24.586Z,93.84
2017-12-24T23:00:01.216Z,94.14
2017-12-24T23:02:30.274Z,93.79
2017-12-24T23:04:59.317Z,93.78
2017-12-24T23:07:28.357Z,94.19
2017-12-24T23:09:57.406Z,93.31
2017-12-24T23:12:31.010Z,93.05
2017-12-24T23:15:00.119Z,93.43
2017-12-24T23:17:34.731Z,93.92
2017-12-24T23:20:07.854Z,93.66
2017-12-24T23:22:40.094Z,93.41
2017-12-24T23:25:26.892Z,92.71
2017-12-24T23:27:55.927Z,94.48
2017-12-24T23:30:25.949Z,94.48
2017-12-24T23:32:54.989Z,93.90
2017-12-24T23:35:24.035Z,94.25
2017-12-24T23:37:53.087Z,94.80
2017-12-24T23:40:22.131Z,94.67
2017-12-24T23:42:51.177Z,94.47
2017-12-24T23:45:22.797Z,93.57
2017-12-24T23:47:51.977Z,93.75
2017-12-24T23:52:58.186Z,95.04
2017-12-24T23:58:10.381Z,94.39
